createdAt,value
2018-12-29T00:02:40.556Z,21.52
2018-12-29T00:08:35.617Z,27.85
2018-12-29T00:14:30.560Z,23.43
2018-12-29T00:20:25.567Z,22.5
2018-12-29T00:26:20.588Z,21.38
2018-12-29T00:32:15.584Z,18.97
2018-12-29T00:38:10.570Z,20.83
2018-12-29T00:44:05.584Z,18.5
2018-12-29T00:50:00.588Z,19.57
2018-12-29T00:55:55.577Z,20.69
2018-12-29T01:01:50.590Z,22.69
2018-12-29T01:07:45.581Z,22.44
2018-12-29T01:13:40.627Z,20.82
2018-12-29T01:19:35.601Z,23.38
2018-12-29T01:25:30.602Z,22.74
2018-12-29T01:31:25.639Z,22
2018-12-29T01:37:20.611Z,22.54
2018-12-29T01:43:15.626Z,22.9
2018-12-29T01:49:10.646Z,21.63
2018-12-29T01:55:05.636Z,22.09
2018-12-29T02:01:00.623Z,22.9
2018-12-29T02:06:55.625Z,19.34
2018-12-29T02:12:50.627Z,22.23
2018-12-29T02:18:45.642Z,20.28
2018-12-29T02:24:40.665Z,19.27
2018-12-29T02:30:35.664Z,22.61
2018-12-29T02:36:30.649Z,16.11
2018-12-29T02:42:25.635Z,23.31
2018-12-29T02:48:20.649Z,19.67
2018-12-29T02:54:15.657Z,17.89
2018-12-29T03:00:10.659Z,20.37
2018-12-29T03:06:05.775Z,16.87
2018-12-29T03:12:00.658Z,19.09
2018-12-29T03:17:55.684Z,23.88
2018-12-29T03:23:50.686Z,22
2018-12-29T03:29:45.708Z,20.94
2018-12-29T03:35:40.778Z,20.92
2018-12-29T03:41:35.720Z,19.57
2018-12-29T03:47:30.670Z,19.45
2018-12-29T03:53:25.690Z,19
2018-12-29T03:59:20.710Z,18.77
2018-12-29T04:05:15.731Z,20.68
2018-12-29T04:11:10.679Z,18.47
2018-12-29T04:17:05.743Z,20.21
2018-12-29T04:23:00.724Z,21.52
2018-12-29T04:28:55.716Z,21.48
2018-12-29T04:34:50.690Z,21.85
2018-12-29T04:40:45.735Z,19.26
2018-12-29T04:46:40.718Z,18.64
2018-12-29T04:52:35.751Z,18.84
2018-12-29T04:58:30.713Z,18.12
2018-12-29T05:04:25.728Z,18.35
2018-12-29T05:10:20.738Z,17.17
2018-12-29T05:16:15.747Z,18.99
2018-12-29T05:22:10.719Z,21.25
2018-12-29T05:28:05.750Z,17.3
2018-12-29T05:34:00.758Z,19.48
2018-12-29T05:39:55.730Z,22.16
2018-12-29T05:45:50.758Z,14.68
2018-12-29T05:51:45.766Z,15.9
2018-12-29T05:57:40.749Z,17.96
2018-12-29T06:03:35.803Z,15.98
2018-12-29T06:09:30.757Z,21.88
2018-12-29T06:15:25.762Z,20.83
2018-12-29T06:21:20.780Z,19.78
2018-12-29T06:27:15.771Z,19.95
2018-12-29T06:33:10.775Z,19.8
2018-12-29T06:39:05.792Z,16.87
2018-12-29T06:45:00.788Z,24.34
2018-12-29T06:50:55.785Z,24.58
2018-12-29T06:56:50.785Z,24.58
2018-12-29T07:02:45.805Z,23.04
2018-12-29T07:08:40.786Z,23.11
2018-12-29T07:14:35.810Z,25.78
2018-12-29T07:20:30.798Z,21.3
2018-12-29T07:26:25.809Z,24.62
2018-12-29T07:32:20.823Z,28.71
2018-12-29T07:38:15.831Z,27.13
2018-12-29T07:44:10.823Z,22.81
2018-12-29T07:50:05.821Z,20.79
2018-12-29T07:56:00.808Z,22.64
2018-12-29T08:01:55.842Z,22.1
2018-12-29T08:07:50.831Z,22.1
2018-12-29T08:13:45.848Z,21.8
2018-12-29T08:19:40.866Z,25.15
2018-12-29T08:25:35.822Z,27.49
2018-12-29T08:31:30.866Z,27.03
2018-12-29T08:37:25.841Z,26.32
2018-12-29T08:43:20.859Z,25.18
2018-12-29T08:49:15.857Z,22.69
2018-12-29T08:55:10.877Z,27.93
2018-12-29T09:01:05.882Z,26.17
2018-12-29T09:07:00.889Z,27.37
2018-12-29T09:12:55.873Z,27.84
2018-12-29T09:18:50.883Z,23.82
2018-12-29T09:24:45.879Z,25.96
2018-12-29T09:30:40.898Z,25.51
2018-12-29T09:36:35.879Z,24.87
2018-12-29T09:42:30.883Z,26.23
2018-12-29T09:48:25.893Z,24.99
2018-12-29T09:54:20.882Z,21.77
2018-12-29T10:00:15.924Z,29.11
2018-12-29T10:06:10.894Z,28.67
2018-12-29T10:12:05.907Z,31.69
2018-12-29T10:18:00.940Z,35.08
2018-12-29T10:23:55.927Z,35.53
2018-12-29T10:29:50.903Z,36.53
2018-12-29T10:35:45.903Z,34.12
2018-12-29T10:41:40.946Z,32.27
2018-12-29T10:47:35.945Z,32.72
2018-12-29T10:53:30.921Z,32.91
2018-12-29T10:59:25.906Z,33.34
2018-12-29T11:05:20.921Z,36.6
2018-12-29T11:11:15.927Z,40.41
2018-12-29T11:17:10.933Z,34.02
2018-12-29T11:23:05.947Z,32.91
2018-12-29T11:29:00.969Z,31.91
2018-12-29T11:34:55.963Z,31.35
2018-12-29T11:40:50.959Z,32.74
2018-12-29T11:46:45.949Z,33.7
2018-12-29T11:52:40.958Z,32.56
2018-12-29T11:58:35.958Z,31.17
2018-12-29T12:04:30.943Z,40.55
2018-12-29T12:10:25.990Z,33.41
2018-12-29T12:16:20.999Z,33.26
2018-12-29T12:22:15.964Z,34.24
2018-12-29T12:28:10.974Z,30.7
2018-12-29T12:34:05.985Z,32.96
2018-12-29T12:40:00.971Z,30.03
2018-12-29T12:45:55.977Z,36.28
2018-12-29T12:51:51.000Z,25.99
2018-12-29T12:57:46.027Z,32.66
2018-12-29T13:03:41.012Z,27.83
2018-12-29T13:09:36.015Z,28.6
2018-12-29T13:15:31.022Z,28.2
2018-12-29T13:21:26.031Z,22.22
2018-12-29T13:27:21.046Z,29.76
2018-12-29T13:33:16.015Z,28.09
2018-12-29T13:39:11.036Z,28.91
2018-12-29T13:45:06.026Z,27.13
2018-12-29T13:51:01.048Z,28.87
2018-12-29T13:56:56.016Z,31.69
2018-12-29T14:02:51.053Z,29.63
2018-12-29T14:08:46.057Z,40.49
2018-12-29T14:14:41.019Z,23.22
2018-12-29T14:20:36.044Z,24
2018-12-29T14:26:31.047Z,30.98
2018-12-29T14:32:26.095Z,28.65
2018-12-29T14:38:21.083Z,29.54
2018-12-29T14:44:16.038Z,39.36
2018-12-29T14:50:11.047Z,38.86
2018-12-29T14:56:06.059Z,36
2018-12-29T15:02:01.113Z,40.54
2018-12-29T15:07:56.091Z,40
2018-12-29T15:13:51.117Z,39.74
2018-12-29T15:19:46.093Z,42.3
2018-12-29T15:25:41.072Z,34.33
2018-12-29T15:31:36.193Z,40.86
2018-12-29T15:37:31.121Z,43.21
2018-12-29T15:43:26.116Z,45.81
2018-12-29T15:49:21.115Z,40.36
2018-12-29T15:55:16.094Z,41.9
2018-12-29T16:01:11.114Z,49.13
2018-12-29T16:07:06.115Z,48.72
2018-12-29T16:13:01.127Z,43.86
2018-12-29T16:18:58.869Z,52.51
2018-12-29T16:24:51.099Z,52.58
2018-12-29T16:30:46.125Z,52.93
2018-12-29T16:36:41.140Z,51.02
2018-12-29T16:42:36.122Z,49.99
2018-12-29T16:48:31.139Z,47.04
2018-12-29T16:54:26.127Z,54.37
2018-12-29T17:00:21.123Z,60.85
2018-12-29T17:06:16.134Z,68.08
2018-12-29T17:12:11.153Z,63.37
2018-12-29T17:18:06.143Z,59.52
2018-12-29T17:24:01.143Z,61.92
2018-12-29T17:29:56.142Z,59.88
2018-12-29T17:35:51.161Z,61.7
2018-12-29T17:41:46.156Z,76.42
2018-12-29T17:47:41.191Z,62.35
2018-12-29T17:53:36.178Z,59.23
2018-12-29T17:59:31.229Z,62.79
2018-12-29T18:05:26.234Z,61.3
2018-12-29T18:11:21.166Z,68.82
2018-12-29T18:17:16.187Z,52.36
2018-12-29T18:23:11.230Z,60.21
2018-12-29T18:29:06.189Z,62.09
2018-12-29T18:35:01.237Z,67.86
2018-12-29T18:40:56.202Z,72.94
2018-12-29T18:46:51.198Z,62.56
2018-12-29T18:52:46.239Z,63.5
2018-12-29T18:58:41.197Z,61.17
2018-12-29T19:04:36.244Z,68.51
2018-12-29T19:10:31.204Z,57.52
2018-12-29T19:16:26.210Z,66.88
2018-12-29T19:22:21.212Z,69.52
2018-12-29T19:28:16.251Z,66.53
2018-12-29T19:34:11.226Z,67.89
2018-12-29T19:40:06.248Z,61.42
2018-12-29T19:46:01.213Z,62.34
2018-12-29T19:51:56.258Z,69
2018-12-29T19:57:51.245Z,66.76
2018-12-29T20:03:46.266Z,61.81
2018-12-29T20:09:41.244Z,63.63
2018-12-29T20:15:36.239Z,61.11
2018-12-29T20:21:31.259Z,56.38
2018-12-29T20:27:26.297Z,60.64
2018-12-29T20:33:21.243Z,63.26
2018-12-29T20:39:16.242Z,57.53
2018-12-29T20:45:11.264Z,53.59
2018-12-29T20:51:06.313Z,54.37
2018-12-29T20:57:01.293Z,55.67
2018-12-29T21:02:56.271Z,55.22
2018-12-29T21:08:51.285Z,49.92
2018-12-29T21:14:46.313Z,57.05
2018-12-29T21:20:41.289Z,61.09
2018-12-29T21:26:36.291Z,52.94
2018-12-29T21:32:31.304Z,57.1
2018-12-29T21:38:26.305Z,57.91
2018-12-29T21:44:21.311Z,54.95
2018-12-29T21:50:16.326Z,51.67
2018-12-29T21:56:11.303Z,56.41
2018-12-29T22:02:06.286Z,55.12
2018-12-29T22:08:01.308Z,58.25
2018-12-29T22:13:56.313Z,52.23
2018-12-29T22:19:51.315Z,55.13
2018-12-29T22:25:48.260Z,50.42
2018-12-29T22:31:41.322Z,55.45
2018-12-29T22:37:36.325Z,47.11
2018-12-29T22:43:31.340Z,58.45
2018-12-29T22:49:26.336Z,53.64
2018-12-29T22:55:21.339Z,46.24
2018-12-29T23:01:16.354Z,46.85
2018-12-29T23:07:11.366Z,41.22
2018-12-29T23:13:06.365Z,48.7
2018-12-29T23:19:01.335Z,47.61
2018-12-29T23:24:56.432Z,43.56
2018-12-29T23:30:51.375Z,50.15
2018-12-29T23:36:46.416Z,55.5
2018-12-29T23:42:41.366Z,54.06
2018-12-29T23:48:36.382Z,53.16
2018-12-29T23:54:31.363Z,53.11
